sensor_id;sensor_type;location;lat;lon;timestamp;pressure;altitude;pressure_sealevel;temperature;humidity
61568;BME280;47462;59.172;17.196;2023-12-07T00:00:36;102168.38;;;-8.52;79.02
61568;BME280;47462;59.172;17.196;2023-12-07T00:03:02;102176.59;;;-8.43;79.13
61568;BME280;47462;59.172;17.196;2023-12-07T00:05:28;102179.44;;;-8.38;79.17
61568;BME280;47462;59.172;17.196;2023-12-07T00:07:53;102171.53;;;-8.43;79.36
61568;BME280;47462;59.172;17.196;2023-12-07T00:10:19;102170.88;;;-8.40;79.55
61568;BME280;47462;59.172;17.196;2023-12-07T00:12:44;102183.09;;;-8.34;79.76
61568;BME280;47462;59.172;17.196;2023-12-07T00:15:10;102181.00;;;-8.28;79.90
61568;BME280;47462;59.172;17.196;2023-12-07T00:17:38;102175.03;;;-8.29;79.54
61568;BME280;47462;59.172;17.196;2023-12-07T00:20:04;102178.22;;;-8.19;79.65
61568;BME280;47462;59.172;17.196;2023-12-07T00:22:30;102166.47;;;-8.19;79.59
61568;BME280;47462;59.172;17.196;2023-12-07T00:24:55;102180.09;;;-8.17;79.89
61568;BME280;47462;59.172;17.196;2023-12-07T00:27:21;102170.31;;;-8.12;80.01
61568;BME280;47462;59.172;17.196;2023-12-07T00:29:47;102164.00;;;-8.06;80.24
61568;BME280;47462;59.172;17.196;2023-12-07T00:32:12;102167.53;;;-8.03;80.54
61568;BME280;47462;59.172;17.196;2023-12-07T00:34:38;102169.50;;;-7.99;79.68
61568;BME280;47462;59.172;17.196;2023-12-07T00:37:05;102175.69;;;-7.96;80.27
61568;BME280;47462;59.172;17.196;2023-12-07T00:39:30;102171.91;;;-7.89;80.03
61568;BME280;47462;59.172;17.196;2023-12-07T00:41:56;102172.81;;;-7.89;79.72
61568;BME280;47462;59.172;17.196;2023-12-07T00:44:21;102178.66;;;-7.90;79.91
61568;BME280;47462;59.172;17.196;2023-12-07T00:46:47;102173.78;;;-7.86;80.13
61568;BME280;47462;59.172;17.196;2023-12-07T00:49:13;102170.81;;;-7.81;80.01
61568;BME280;47462;59.172;17.196;2023-12-07T00:51:38;102177.63;;;-7.80;79.83
61568;BME280;47462;59.172;17.196;2023-12-07T00:54:04;102175.28;;;-7.77;79.81
61568;BME280;47462;59.172;17.196;2023-12-07T00:56:29;102181.38;;;-7.75;79.62
61568;BME280;47462;59.172;17.196;2023-12-07T00:58:54;102181.47;;;-7.73;79.73
61568;BME280;47462;59.172;17.196;2023-12-07T01:01:20;102180.47;;;-7.75;79.69
61568;BME280;47462;59.172;17.196;2023-12-07T01:03:46;102187.84;;;-7.66;80.04
61568;BME280;47462;59.172;17.196;2023-12-07T01:06:12;102176.16;;;-7.64;80.32
61568;BME280;47462;59.172;17.196;2023-12-07T01:08:37;102175.28;;;-7.65;80.26
61568;BME280;47462;59.172;17.196;2023-12-07T01:11:04;102181.63;;;-7.58;80.43
61568;BME280;47462;59.172;17.196;2023-12-07T01:13:31;102174.94;;;-7.58;80.41
61568;BME280;47462;59.172;17.196;2023-12-07T01:15:57;102164.00;;;-7.57;80.40
61568;BME280;47462;59.172;17.196;2023-12-07T01:18:22;102167.44;;;-7.56;80.78
61568;BME280;47462;59.172;17.196;2023-12-07T01:20:48;102174.88;;;-7.46;80.70
61568;BME280;47462;59.172;17.196;2023-12-07T01:23:14;102175.56;;;-7.48;80.94
61568;BME280;47462;59.172;17.196;2023-12-07T01:25:40;102177.19;;;-7.49;80.87
61568;BME280;47462;59.172;17.196;2023-12-07T01:28:05;102175.66;;;-7.47;81.11
61568;BME280;47462;59.172;17.196;2023-12-07T01:30:31;102185.00;;;-7.46;80.83
61568;BME280;47462;59.172;17.196;2023-12-07T01:32:57;102185.59;;;-7.50;80.73
61568;BME280;47462;59.172;17.196;2023-12-07T01:35:22;102179.84;;;-7.47;80.89
61568;BME280;47462;59.172;17.196;2023-12-07T01:37:48;102182.69;;;-7.43;80.54
61568;BME280;47462;59.172;17.196;2023-12-07T01:40:14;102183.28;;;-7.47;80.38
61568;BME280;47462;59.172;17.196;2023-12-07T01:42:42;102194.19;;;-7.48;80.67
61568;BME280;47462;59.172;17.196;2023-12-07T01:45:14;102193.00;;;-7.53;80.57
61568;BME280;47462;59.172;17.196;2023-12-07T01:47:39;102183.72;;;-7.53;80.81
61568;BME280;47462;59.172;17.196;2023-12-07T01:50:05;102196.94;;;-7.45;80.79
61568;BME280;47462;59.172;17.196;2023-12-07T01:52:32;102193.41;;;-7.47;81.03
61568;BME280;47462;59.172;17.196;2023-12-07T01:55:01;102187.53;;;-7.46;81.04
61568;BME280;47462;59.172;17.196;2023-12-07T01:57:26;102183.47;;;-7.44;80.96
61568;BME280;47462;59.172;17.196;2023-12-07T01:59:52;102183.00;;;-7.38;80.93
61568;BME280;47462;59.172;17.196;2023-12-07T02:02:17;102173.53;;;-7.41;80.71
61568;BME280;47462;59.172;17.196;2023-12-07T02:04:43;102175.50;;;-7.37;80.84
61568;BME280;47462;59.172;17.196;2023-12-07T02:07:09;102180.00;;;-7.32;80.89
61568;BME280;47462;59.172;17.196;2023-12-07T02:09:35;102184.97;;;-7.34;80.90
61568;BME280;47462;59.172;17.196;2023-12-07T02:12:01;102180.25;;;-7.41;81.04
61568;BME280;47462;59.172;17.196;2023-12-07T02:14:26;102180.16;;;-7.43;81.30
61568;BME280;47462;59.172;17.196;2023-12-07T02:16:57;102177.81;;;-7.40;80.99
61568;BME280;47462;59.172;17.196;2023-12-07T02:19:48;102171.78;;;-7.42;81.32
61568;BME280;47462;59.172;17.196;2023-12-07T02:22:27;102169.91;;;-7.44;81.25
61568;BME280;47462;59.172;17.196;2023-12-07T02:25:08;102164.09;;;-7.55;81.07
61568;BME280;47462;59.172;17.196;2023-12-07T02:27:35;102165.41;;;-7.48;81.11
61568;BME280;47462;59.172;17.196;2023-12-07T02:30:01;102167.84;;;-7.50;81.07
61568;BME280;47462;59.172;17.196;2023-12-07T02:32:27;102164.50;;;-7.49;81.07
61568;BME280;47462;59.172;17.196;2023-12-07T02:34:53;102160.56;;;-7.45;81.41
61568;BME280;47462;59.172;17.196;2023-12-07T02:37:21;102157.50;;;-7.53;81.28
61568;BME280;47462;59.172;17.196;2023-12-07T02:39:48;102168.41;;;-7.54;81.30
61568;BME280;47462;59.172;17.196;2023-12-07T02:42:15;102159.72;;;-7.58;81.36
61568;BME280;47462;59.172;17.196;2023-12-07T02:44:42;102162.16;;;-7.59;81.40
61568;BME280;47462;59.172;17.196;2023-12-07T02:47:08;102162.25;;;-7.58;81.58
61568;BME280;47462;59.172;17.196;2023-12-07T02:49:34;102152.22;;;-7.56;81.28
61568;BME280;47462;59.172;17.196;2023-12-07T02:51:59;102153.66;;;-7.60;81.19
61568;BME280;47462;59.172;17.196;2023-12-07T02:54:24;102148.38;;;-7.63;80.91
61568;BME280;47462;59.172;17.196;2023-12-07T02:56:50;102149.06;;;-7.65;81.18
61568;BME280;47462;59.172;17.196;2023-12-07T02:59:15;102148.94;;;-7.67;80.85
61568;BME280;47462;59.172;17.196;2023-12-07T03:01:41;102146.97;;;-7.71;81.35
61568;BME280;47462;59.172;17.196;2023-12-07T03:04:07;102154.69;;;-7.69;80.91
61568;BME280;47462;59.172;17.196;2023-12-07T03:06:32;102158.66;;;-7.73;81.04
61568;BME280;47462;59.172;17.196;2023-12-07T03:08:58;102146.56;;;-7.77;81.12
61568;BME280;47462;59.172;17.196;2023-12-07T03:11:24;102150.97;;;-7.75;81.31
61568;BME280;47462;59.172;17.196;2023-12-07T03:13:49;102157.56;;;-7.77;81.32
61568;BME280;47462;59.172;17.196;2023-12-07T03:16:15;102155.03;;;-7.77;81.25
61568;BME280;47462;59.172;17.196;2023-12-07T03:18:41;102159.66;;;-7.71;81.60
61568;BME280;47462;59.172;17.196;2023-12-07T03:21:06;102162.50;;;-7.66;81.76
61568;BME280;47462;59.172;17.196;2023-12-07T03:23:32;102134.19;;;-7.73;81.57
61568;BME280;47462;59.172;17.196;2023-12-07T03:25:58;102153.53;;;-7.61;81.64
61568;BME280;47462;59.172;17.196;2023-12-07T03:28:25;102143.09;;;-7.66;82.05
61568;BME280;47462;59.172;17.196;2023-12-07T03:30:52;102152.97;;;-7.57;81.98
61568;BME280;47462;59.172;17.196;2023-12-07T03:33:18;102157.19;;;-7.58;82.05
61568;BME280;47462;59.172;17.196;2023-12-07T03:35:43;102149.47;;;-7.59;82.14
61568;BME280;47462;59.172;17.196;2023-12-07T03:38:09;102154.16;;;-7.52;82.54
61568;BME280;47462;59.172;17.196;2023-12-07T03:40:37;102162.50;;;-7.41;82.70
61568;BME280;47462;59.172;17.196;2023-12-07T03:43:03;102156.09;;;-7.36;82.58
61568;BME280;47462;59.172;17.196;2023-12-07T03:45:29;102162.91;;;-7.35;82.44
61568;BME280;47462;59.172;17.196;2023-12-07T03:47:55;102158.75;;;-7.35;82.46
61568;BME280;47462;59.172;17.196;2023-12-07T03:50:20;102159.16;;;-7.28;82.48
61568;BME280;47462;59.172;17.196;2023-12-07T03:52:46;102164.44;;;-7.25;82.51
61568;BME280;47462;59.172;17.196;2023-12-07T03:55:12;102158.69;;;-7.23;82.54
61568;BME280;47462;59.172;17.196;2023-12-07T03:57:37;102153.38;;;-7.26;82.85
61568;BME280;47462;59.172;17.196;2023-12-07T04:00:03;102163.06;;;-7.20;82.68
61568;BME280;47462;59.172;17.196;2023-12-07T04:02:38;102168.34;;;-7.17;82.57
61568;BME280;47462;59.172;17.196;2023-12-07T04:05:04;102169.66;;;-7.10;83.20
61568;BME280;47462;59.172;17.196;2023-12-07T04:07:29;102170.44;;;-7.11;82.98
61568;BME280;47462;59.172;17.196;2023-12-07T04:09:55;102170.94;;;-7.04;83.07
61568;BME280;47462;59.172;17.196;2023-12-07T04:12:23;102177.78;;;-7.03;83.09
61568;BME280;47462;59.172;17.196;2023-12-07T04:14:49;102174.25;;;-7.05;83.00
61568;BME280;47462;59.172;17.196;2023-12-07T04:17:15;102176.22;;;-7.01;82.89
61568;BME280;47462;59.172;17.196;2023-12-07T04:19:40;102168.91;;;-6.96;83.12
61568;BME280;47462;59.172;17.196;2023-12-07T04:22:06;102175.94;;;-6.92;82.88
61568;BME280;47462;59.172;17.196;2023-12-07T04:24:31;102165.19;;;-6.88;83.20
61568;BME280;47462;59.172;17.196;2023-12-07T04:26:57;102159.34;;;-6.87;82.85
61568;BME280;47462;59.172;17.196;2023-12-07T04:29:22;102163.66;;;-6.86;83.04
61568;BME280;47462;59.172;17.196;2023-12-07T04:31:47;102157.69;;;-6.86;82.85
61568;BME280;47462;59.172;17.196;2023-12-07T04:34:13;102154.47;;;-6.84;83.00
61568;BME280;47462;59.172;17.196;2023-12-07T04:36:38;102155.53;;;-6.80;83.03
61568;BME280;47462;59.172;17.196;2023-12-07T04:39:04;102152.44;;;-6.76;83.10
61568;BME280;47462;59.172;17.196;2023-12-07T04:41:29;102153.22;;;-6.77;82.87
61568;BME280;47462;59.172;17.196;2023-12-07T04:43:55;102157.53;;;-6.76;83.35
61568;BME280;47462;59.172;17.196;2023-12-07T04:46:20;102150.00;;;-6.74;83.30
61568;BME280;47462;59.172;17.196;2023-12-07T04:48:46;102150.78;;;-6.62;83.05
61568;BME280;47462;59.172;17.196;2023-12-07T04:51:11;102159.50;;;-6.58;82.94
61568;BME280;47462;59.172;17.196;2023-12-07T04:53:37;102157.16;;;-6.55;83.07
61568;BME280;47462;59.172;17.196;2023-12-07T04:56:02;102165.94;;;-6.50;83.33
61568;BME280;47462;59.172;17.196;2023-12-07T04:58:27;102159.19;;;-6.50;82.99
61568;BME280;47462;59.172;17.196;2023-12-07T05:00:53;102160.59;;;-6.41;83.77
61568;BME280;47462;59.172;17.196;2023-12-07T05:03:18;102162.53;;;-6.37;83.42
61568;BME280;47462;59.172;17.196;2023-12-07T05:05:44;102152.84;;;-6.30;83.67
61568;BME280;47462;59.172;17.196;2023-12-07T05:08:09;102157.91;;;-6.30;83.81
61568;BME280;47462;59.172;17.196;2023-12-07T05:10:34;102156.88;;;-6.20;84.36
61568;BME280;47462;59.172;17.196;2023-12-07T05:13:00;102148.91;;;-6.11;84.55
61568;BME280;47462;59.172;17.196;2023-12-07T05:15:25;102146.56;;;-6.08;84.60
61568;BME280;47462;59.172;17.196;2023-12-07T05:17:51;102141.09;;;-6.01;85.17
61568;BME280;47462;59.172;17.196;2023-12-07T05:20:16;102139.66;;;-5.96;85.97
61568;BME280;47462;59.172;17.196;2023-12-07T05:22:43;102128.72;;;-5.95;86.20
61568;BME280;47462;59.172;17.196;2023-12-07T05:25:09;102135.06;;;-5.88;86.56
61568;BME280;47462;59.172;17.196;2023-12-07T05:27:34;102130.19;;;-5.85;87.32
61568;BME280;47462;59.172;17.196;2023-12-07T05:30:00;102136.31;;;-5.81;87.59
61568;BME280;47462;59.172;17.196;2023-12-07T05:32:26;102133.78;;;-5.81;87.76
61568;BME280;47462;59.172;17.196;2023-12-07T05:34:51;102140.19;;;-5.73;87.79
61568;BME280;47462;59.172;17.196;2023-12-07T05:37:17;102143.03;;;-5.68;88.41
61568;BME280;47462;59.172;17.196;2023-12-07T05:39:42;102150.94;;;-5.64;88.11
61568;BME280;47462;59.172;17.196;2023-12-07T05:42:08;102141.75;;;-5.62;87.66
61568;BME280;47462;59.172;17.196;2023-12-07T05:44:34;102117.41;;;-5.71;87.35
61568;BME280;47462;59.172;17.196;2023-12-07T05:46:59;102139.47;;;-5.57;87.43
61568;BME280;47462;59.172;17.196;2023-12-07T05:49:24;102143.84;;;-5.55;87.56
61568;BME280;47462;59.172;17.196;2023-12-07T05:51:50;102149.47;;;-5.45;87.75
61568;BME280;47462;59.172;17.196;2023-12-07T05:54:15;102141.34;;;-5.40;87.67
61568;BME280;47462;59.172;17.196;2023-12-07T05:56:41;102141.53;;;-5.37;87.62
61568;BME280;47462;59.172;17.196;2023-12-07T05:59:06;102143.91;;;-5.40;86.86
61568;BME280;47462;59.172;17.196;2023-12-07T06:01:32;102143.03;;;-5.40;86.82
61568;BME280;47462;59.172;17.196;2023-12-07T06:03:58;102142.22;;;-5.39;86.55
61568;BME280;47462;59.172;17.196;2023-12-07T06:06:23;102142.94;;;-5.42;86.33
61568;BME280;47462;59.172;17.196;2023-12-07T06:08:49;102140.97;;;-5.46;86.52
61568;BME280;47462;59.172;17.196;2023-12-07T06:11:14;102136.34;;;-5.38;87.19
61568;BME280;47462;59.172;17.196;2023-12-07T06:13:40;102136.72;;;-5.32;86.83
61568;BME280;47462;59.172;17.196;2023-12-07T06:16:06;102139.34;;;-5.30;86.90
61568;BME280;47462;59.172;17.196;2023-12-07T06:18:32;102146.13;;;-5.31;87.33
61568;BME280;47462;59.172;17.196;2023-12-07T06:20:57;102138.66;;;-5.28;86.72
61568;BME280;47462;59.172;17.196;2023-12-07T06:23:22;102137.00;;;-5.27;87.49
61568;BME280;47462;59.172;17.196;2023-12-07T06:25:48;102140.97;;;-5.17;87.38
61568;BME280;47462;59.172;17.196;2023-12-07T06:28:14;102140.34;;;-5.13;87.61
61568;BME280;47462;59.172;17.196;2023-12-07T06:30:40;102146.41;;;-5.11;nan
61568;BME280;47462;59.172;17.196;2023-12-07T06:33:06;102144.66;;;-5.12;87.72
61568;BME280;47462;59.172;17.196;2023-12-07T06:35:31;102148.06;;;-5.12;87.34
61568;BME280;47462;59.172;17.196;2023-12-07T06:37:57;102146.59;;;-5.08;87.18
61568;BME280;47462;59.172;17.196;2023-12-07T06:40:23;102134.03;;;-5.05;86.73
61568;BME280;47462;59.172;17.196;2023-12-07T06:42:48;102139.91;;;-5.06;86.77
61568;BME280;47462;59.172;17.196;2023-12-07T06:45:14;102137.53;;;-5.03;86.56
61568;BME280;47462;59.172;17.196;2023-12-07T06:47:42;102148.88;;;-4.98;86.21
61568;BME280;47462;59.172;17.196;2023-12-07T06:50:09;102147.47;;;-4.93;86.39
61568;BME280;47462;59.172;17.196;2023-12-07T06:52:38;102131.03;;;-4.98;86.51
61568;BME280;47462;59.172;17.196;2023-12-07T06:55:05;102147.03;;;-4.86;86.16
61568;BME280;47462;59.172;17.196;2023-12-07T06:57:31;102145.13;;;-4.90;85.92
61568;BME280;47462;59.172;17.196;2023-12-07T06:59:57;102148.44;;;-4.91;85.67
61568;BME280;47462;59.172;17.196;2023-12-07T07:02:22;102144.31;;;-4.89;86.34
61568;BME280;47462;59.172;17.196;2023-12-07T07:04:48;102139.28;;;-4.87;86.04
61568;BME280;47462;59.172;17.196;2023-12-07T07:07:15;102141.94;;;-4.86;86.41
61568;BME280;47462;59.172;17.196;2023-12-07T07:09:41;102139.56;;;-4.82;86.36
61568;BME280;47462;59.172;17.196;2023-12-07T07:12:06;102143.44;;;-4.74;86.75
61568;BME280;47462;59.172;17.196;2023-12-07T07:14:32;102142.53;;;-4.75;86.39
61568;BME280;47462;59.172;17.196;2023-12-07T07:16:58;102128.75;;;-4.78;86.32
61568;BME280;47462;59.172;17.196;2023-12-07T07:19:23;102144.41;;;-4.72;86.31
61568;BME280;47462;59.172;17.196;2023-12-07T07:21:49;102141.25;;;-4.68;86.54
61568;BME280;47462;59.172;17.196;2023-12-07T07:24:14;102141.59;;;-4.62;86.70
61568;BME280;47462;59.172;17.196;2023-12-07T07:26:40;102139.28;;;-4.57;86.55
61568;BME280;47462;59.172;17.196;2023-12-07T07:29:05;102134.03;;;-4.60;86.66
61568;BME280;47462;59.172;17.196;2023-12-07T07:31:32;102145.44;;;-4.54;86.35
61568;BME280;47462;59.172;17.196;2023-12-07T07:33:57;102148.63;;;-4.58;86.10
61568;BME280;47462;59.172;17.196;2023-12-07T07:36:26;102141.16;;;-4.55;86.14
61568;BME280;47462;59.172;17.196;2023-12-07T07:38:54;102131.91;;;-4.53;86.14
61568;BME280;47462;59.172;17.196;2023-12-07T07:41:20;102135.56;;;-4.48;85.96
61568;BME280;47462;59.172;17.196;2023-12-07T07:43:45;102135.13;;;-4.40;86.30
61568;BME280;47462;59.172;17.196;2023-12-07T07:46:11;102138.81;;;-4.35;86.08
61568;BME280;47462;59.172;17.196;2023-12-07T07:48:37;102141.00;;;-4.26;86.16
61568;BME280;47462;59.172;17.196;2023-12-07T07:51:03;102144.75;;;-4.20;86.51
61568;BME280;47462;59.172;17.196;2023-12-07T07:53:28;102137.25;;;-4.17;86.17
61568;BME280;47462;59.172;17.196;2023-12-07T07:55:54;102138.16;;;-4.16;86.19
61568;BME280;47462;59.172;17.196;2023-12-07T07:58:20;102136.16;;;-4.22;85.88
61568;BME280;47462;59.172;17.196;2023-12-07T08:00:45;102143.00;;;-4.21;85.60
61568;BME280;47462;59.172;17.196;2023-12-07T08:03:12;102146.25;;;-4.23;86.07
61568;BME280;47462;59.172;17.196;2023-12-07T08:05:37;102137.50;;;-4.28;85.96
61568;BME280;47462;59.172;17.196;2023-12-07T08:08:03;102138.63;;;-4.23;86.17
61568;BME280;47462;59.172;17.196;2023-12-07T08:10:28;102137.19;;;-4.18;86.35
61568;BME280;47462;59.172;17.196;2023-12-07T08:12:54;102139.66;;;-4.20;86.37
61568;BME280;47462;59.172;17.196;2023-12-07T08:15:19;102139.81;;;-4.17;86.25
61568;BME280;47462;59.172;17.196;2023-12-07T08:17:47;102137.25;;;-4.17;86.74
61568;BME280;47462;59.172;17.196;2023-12-07T08:20:12;102144.38;;;-4.11;86.28
61568;BME280;47462;59.172;17.196;2023-12-07T08:22:40;102138.50;;;-4.10;86.76
61568;BME280;47462;59.172;17.196;2023-12-07T08:25:06;102127.56;;;-4.07;86.78
61568;BME280;47462;59.172;17.196;2023-12-07T08:27:33;102140.31;;;-4.07;87.24
61568;BME280;47462;59.172;17.196;2023-12-07T08:29:58;102131.97;;;-4.05;87.29
61568;BME280;47462;59.172;17.196;2023-12-07T08:32:24;102110.19;;;-4.15;87.18
61568;BME280;47462;59.172;17.196;2023-12-07T08:34:51;102113.78;;;-4.11;87.43
61568;BME280;47462;59.172;17.196;2023-12-07T08:37:17;102135.09;;;-3.94;87.40
61568;BME280;47462;59.172;17.196;2023-12-07T08:39:42;102132.06;;;-3.87;87.23
61568;BME280;47462;59.172;17.196;2023-12-07T08:42:08;102129.59;;;-3.85;86.95
61568;BME280;47462;59.172;17.196;2023-12-07T08:44:33;102140.69;;;-3.85;86.28
61568;BME280;47462;59.172;17.196;2023-12-07T08:46:59;102143.38;;;-3.82;86.67
61568;BME280;47462;59.172;17.196;2023-12-07T08:49:24;102144.44;;;-3.78;86.47
61568;BME280;47462;59.172;17.196;2023-12-07T08:51:51;102141.91;;;-3.78;86.54
61568;BME280;47462;59.172;17.196;2023-12-07T08:54:18;102144.69;;;-3.73;86.48
61568;BME280;47462;59.172;17.196;2023-12-07T08:56:44;102143.25;;;-3.68;86.50
61568;BME280;47462;59.172;17.196;2023-12-07T08:59:11;102147.97;;;-3.60;86.33
61568;BME280;47462;59.172;17.196;2023-12-07T09:01:36;102146.13;;;-3.62;85.97
61568;BME280;47462;59.172;17.196;2023-12-07T09:04:02;102150.53;;;-3.60;86.26
61568;BME280;47462;59.172;17.196;2023-12-07T09:06:28;102138.31;;;-3.65;85.95
61568;BME280;47462;59.172;17.196;2023-12-07T09:08:53;102146.13;;;-3.62;86.08
61568;BME280;47462;59.172;17.196;2023-12-07T09:11:20;102142.78;;;-3.61;86.10
61568;BME280;47462;59.172;17.196;2023-12-07T09:13:45;102144.53;;;-3.60;86.18
61568;BME280;47462;59.172;17.196;2023-12-07T09:16:11;102152.50;;;-3.54;86.54
61568;BME280;47462;59.172;17.196;2023-12-07T09:18:45;102146.59;;;-3.53;86.54
61568;BME280;47462;59.172;17.196;2023-12-07T09:21:11;102146.84;;;-3.48;86.31
61568;BME280;47462;59.172;17.196;2023-12-07T09:23:37;102143.59;;;-3.46;86.01
61568;BME280;47462;59.172;17.196;2023-12-07T09:26:03;102139.50;;;-3.42;86.66
61568;BME280;47462;59.172;17.196;2023-12-07T09:28:28;102145.16;;;-3.48;86.54
61568;BME280;47462;59.172;17.196;2023-12-07T09:30:54;102132.06;;;-3.54;86.37
61568;BME280;47462;59.172;17.196;2023-12-07T09:33:19;102144.28;;;-3.48;86.39
61568;BME280;47462;59.172;17.196;2023-12-07T09:35:45;102136.16;;;-3.58;86.65
61568;BME280;47462;59.172;17.196;2023-12-07T09:38:10;102144.91;;;-3.52;87.34
61568;BME280;47462;59.172;17.196;2023-12-07T09:40:36;102143.25;;;-3.52;86.83
61568;BME280;47462;59.172;17.196;2023-12-07T09:43:01;102135.78;;;-3.49;86.97
61568;BME280;47462;59.172;17.196;2023-12-07T09:45:27;102135.09;;;-3.45;87.19
61568;BME280;47462;59.172;17.196;2023-12-07T09:47:53;102126.50;;;-3.47;87.12
61568;BME280;47462;59.172;17.196;2023-12-07T09:50:26;102145.38;;;-3.43;87.07
61568;BME280;47462;59.172;17.196;2023-12-07T09:52:56;102147.47;;;-3.36;87.04
61568;BME280;47462;59.172;17.196;2023-12-07T09:55:22;102147.41;;;-3.37;87.23
61568;BME280;47462;59.172;17.196;2023-12-07T09:57:51;102145.94;;;-3.32;87.02
61568;BME280;47462;59.172;17.196;2023-12-07T10:00:19;102140.22;;;-3.28;87.03
61568;BME280;47462;59.172;17.196;2023-12-07T10:02:46;102132.47;;;-3.30;87.23
61568;BME280;47462;59.172;17.196;2023-12-07T10:05:13;102126.66;;;-3.27;87.28
61568;BME280;47462;59.172;17.196;2023-12-07T10:07:43;102119.69;;;-3.30;87.34
61568;BME280;47462;59.172;17.196;2023-12-07T10:10:09;102128.34;;;-3.28;87.16
61568;BME280;47462;59.172;17.196;2023-12-07T10:12:54;102117.22;;;-3.28;87.27
61568;BME280;47462;59.172;17.196;2023-12-07T10:15:22;102106.22;;;-3.27;87.82
61568;BME280;47462;59.172;17.196;2023-12-07T10:17:49;102102.16;;;-3.24;87.57
61568;BME280;47462;59.172;17.196;2023-12-07T10:20:17;102099.59;;;-3.24;87.99
61568;BME280;47462;59.172;17.196;2023-12-07T10:22:44;102100.56;;;-3.21;87.88
61568;BME280;47462;59.172;17.196;2023-12-07T10:25:11;102099.81;;;-3.19;88.06
61568;BME280;47462;59.172;17.196;2023-12-07T10:27:38;102083.63;;;-3.19;88.02
61568;BME280;47462;59.172;17.196;2023-12-07T10:30:09;102086.25;;;-3.18;88.56
61568;BME280;47462;59.172;17.196;2023-12-07T10:32:39;102085.56;;;-3.15;88.50
61568;BME280;47462;59.172;17.196;2023-12-07T10:35:08;102076.03;;;-3.18;88.67
61568;BME280;47462;59.172;17.196;2023-12-07T10:37:35;102073.72;;;-3.13;88.89
61568;BME280;47462;59.172;17.196;2023-12-07T10:40:02;102065.50;;;-3.08;88.75
61568;BME280;47462;59.172;17.196;2023-12-07T10:42:31;102072.47;;;-3.03;88.60
61568;BME280;47462;59.172;17.196;2023-12-07T10:45:01;102063.25;;;-3.01;88.64
61568;BME280;47462;59.172;17.196;2023-12-07T10:47:28;102064.25;;;-2.98;89.07
61568;BME280;47462;59.172;17.196;2023-12-07T10:49:55;102058.13;;;-3.01;88.99
61568;BME280;47462;59.172;17.196;2023-12-07T10:52:24;102062.56;;;-2.97;89.10
61568;BME280;47462;59.172;17.196;2023-12-07T10:57:24;102059.28;;;-2.95;89.35
61568;BME280;47462;59.172;17.196;2023-12-07T10:59:52;102035.84;;;-3.04;89.25
61568;BME280;47462;59.172;17.196;2023-12-07T11:02:20;102054.34;;;-2.92;89.56
61568;BME280;47462;59.172;17.196;2023-12-07T11:04:46;102051.84;;;-2.90;89.56
61568;BME280;47462;59.172;17.196;2023-12-07T11:07:16;102059.72;;;-2.85;89.23
61568;BME280;47462;59.172;17.196;2023-12-07T11:09:49;102046.88;;;-2.87;89.47
61568;BME280;47462;59.172;17.196;2023-12-07T11:12:45;102051.50;;;-2.80;89.49
61568;BME280;47462;59.172;17.196;2023-12-07T11:15:14;102046.47;;;-2.78;89.48
61568;BME280;47462;59.172;17.196;2023-12-07T11:17:54;102041.41;;;-2.77;89.16
61568;BME280;47462;59.172;17.196;2023-12-07T11:20:32;102039.59;;;-2.79;89.46
61568;BME280;47462;59.172;17.196;2023-12-07T11:23:04;102046.69;;;-2.74;89.81
61568;BME280;47462;59.172;17.196;2023-12-07T11:25:30;102050.25;;;-2.70;88.91
61568;BME280;47462;59.172;17.196;2023-12-07T11:28:06;102046.22;;;-2.65;89.50
61568;BME280;47462;59.172;17.196;2023-12-07T11:30:35;102046.47;;;-2.60;89.27
61568;BME280;47462;59.172;17.196;2023-12-07T11:33:04;102046.53;;;-2.59;89.24
61568;BME280;47462;59.172;17.196;2023-12-07T11:35:29;102047.47;;;-2.57;89.06
61568;BME280;47462;59.172;17.196;2023-12-07T11:38:08;102047.47;;;-2.57;89.19
61568;BME280;47462;59.172;17.196;2023-12-07T11:40:43;102047.69;;;-2.52;89.44
61568;BME280;47462;59.172;17.196;2023-12-07T11:43:30;102049.50;;;-2.49;89.25
61568;BME280;47462;59.172;17.196;2023-12-07T11:45:56;102051.25;;;-2.48;89.13
61568;BME280;47462;59.172;17.196;2023-12-07T11:48:21;102050.59;;;-2.44;89.55
61568;BME280;47462;59.172;17.196;2023-12-07T11:50:58;102044.81;;;-2.40;89.33
61568;BME280;47462;59.172;17.196;2023-12-07T11:53:28;102052.91;;;-2.31;88.91
61568;BME280;47462;59.172;17.196;2023-12-07T11:56:00;102047.59;;;-2.36;89.24
61568;BME280;47462;59.172;17.196;2023-12-07T11:58:28;102048.53;;;-2.34;89.08
61568;BME280;47462;59.172;17.196;2023-12-07T12:00:54;102052.97;;;-2.29;89.24
61568;BME280;47462;59.172;17.196;2023-12-07T12:03:21;102045.44;;;-2.26;89.48
61568;BME280;47462;59.172;17.196;2023-12-07T12:05:47;102050.63;;;-2.25;89.76
61568;BME280;47462;59.172;17.196;2023-12-07T12:08:13;102042.97;;;-2.25;89.56
61568;BME280;47462;59.172;17.196;2023-12-07T12:10:40;102045.53;;;-2.25;89.79
61568;BME280;47462;59.172;17.196;2023-12-07T12:13:06;102034.25;;;-2.28;90.29
61568;BME280;47462;59.172;17.196;2023-12-07T12:15:32;102042.91;;;-2.26;90.11
61568;BME280;47462;59.172;17.196;2023-12-07T12:17:58;102036.88;;;-2.27;90.42
61568;BME280;47462;59.172;17.196;2023-12-07T12:20:24;102031.78;;;-2.27;90.67
61568;BME280;47462;59.172;17.196;2023-12-07T12:22:51;102022.38;;;-2.28;90.77
61568;BME280;47462;59.172;17.196;2023-12-07T12:25:21;102025.19;;;-2.22;91.05
61568;BME280;47462;59.172;17.196;2023-12-07T12:27:49;102029.81;;;-2.13;91.29
61568;BME280;47462;59.172;17.196;2023-12-07T12:30:16;102029.31;;;-2.06;91.36
61568;BME280;47462;59.172;17.196;2023-12-07T12:32:46;102029.38;;;-2.04;91.37
61568;BME280;47462;59.172;17.196;2023-12-07T12:35:12;102015.66;;;-2.06;91.62
61568;BME280;47462;59.172;17.196;2023-12-07T12:37:41;102020.13;;;-2.01;91.70
61568;BME280;47462;59.172;17.196;2023-12-07T12:40:11;102022.03;;;-1.97;91.85